Time;durP1;ratioP1;P1;durP2;ratioP2;P2;SDS_P1;SDS_P2;PMS_P1;PMS_P2;Temp;Humidity;BMP_temperature;BMP_pressure;BME280_temperature;BME280_humidity;BME280_pressure;Samples;Min_cycle;Max_cycle;Signal;HPM_P1;HPM_P2
2022/08/17 00:01:28;;;;;;;6.45;5.85;;;;;;;;;;5014652;28;20054;-66
2022/08/17 00:04:17;;;;;;;7.30;5.55;;;;;;;;;;5014829;28;20046;-67
2022/08/17 00:06:45;;;;;;;6.55;5.53;;;;;;;;;;5015097;28;20085;-67
2022/08/17 00:09:15;;;;;;;6.35;5.65;;;;;;;;;;5013878;28;20060;-66
2022/08/17 00:11:45;;;;;;;6.80;5.90;;;;;;;;;;5013561;28;20050;-66
2022/08/17 00:14:32;;;;;;;7.30;6.40;;;;;;;;;;5013993;28;20050;-66
2022/08/17 00:16:58;;;;;;;6.47;5.88;;;;;;;;;;5012619;28;20516;-66
2022/08/17 00:19:25;;;;;;;7.93;5.82;;;;;;;;;;5013642;28;20053;-67
2022/08/17 00:21:55;;;;;;;7.15;6.45;;;;;;;;;;5013623;28;20080;-67
2022/08/17 00:24:41;;;;;;;6.25;5.65;;;;;;;;;;5013951;28;20050;-67
2022/08/17 00:27:08;;;;;;;7.07;6.05;;;;;;;;;;5013685;28;20057;-68
2022/08/17 00:29:34;;;;;;;6.38;5.78;;;;;;;;;;5013602;28;20053;-66
2022/08/17 00:32:02;;;;;;;6.38;5.78;;;;;;;;;;5013325;28;20041;-67
2022/08/17 00:34:48;;;;;;;6.68;6.07;;;;;;;;;;5013656;28;20061;-66
2022/08/17 00:37:15;;;;;;;7.18;6.47;;;;;;;;;;5012153;28;20058;-67
2022/08/17 00:39:42;;;;;;;6.45;5.90;;;;;;;;;;5013169;28;20519;-67
2022/08/17 00:42:17;;;;;;;8.38;6.75;;;;;;;;;;5013231;28;20493;-66
2022/08/17 00:44:44;;;;;;;7.10;6.38;;;;;;;;;;5012111;28;20432;-66
2022/08/17 00:47:10;;;;;;;7.03;6.43;;;;;;;;;;5013431;28;20492;-66
2022/08/17 00:49:37;;;;;;;9.68;6.25;;;;;;;;;;5012936;28;20099;-66
2022/08/17 00:52:07;;;;;;;8.20;6.85;;;;;;;;;;5013245;28;20053;-67
2022/08/17 00:54:38;;;;;;;6.22;5.53;;;;;;;;;;5012169;28;20057;-66
2022/08/17 00:57:12;;;;;;;6.70;5.97;;;;;;;;;;5011595;28;20099;-67
2022/08/17 00:59:50;;;;;;;7.32;6.55;;;;;;;;;;4996194;28;20417;-67
2022/08/17 01:02:30;;;;;;;7.88;6.43;;;;;;;;;;5011908;28;20064;-67
2022/08/17 01:05:08;;;;;;;7.18;6.47;;;;;;;;;;5011789;28;20050;-67
2022/08/17 01:07:35;;;;;;;6.68;5.88;;;;;;;;;;5012868;28;20217;-67
2022/08/17 01:10:04;;;;;;;8.70;6.68;;;;;;;;;;5011322;28;20100;-66
2022/08/17 01:12:34;;;;;;;6.82;6.00;;;;;;;;;;5011662;28;20057;-66
2022/08/17 01:15:00;;;;;;;7.15;6.30;;;;;;;;;;5011660;28;20103;-67
2022/08/17 01:17:27;;;;;;;7.38;6.10;;;;;;;;;;5012603;28;20517;-67
2022/08/17 01:19:53;;;;;;;7.20;6.30;;;;;;;;;;5011316;28;20065;-66
2022/08/17 01:22:22;;;;;;;7.45;6.70;;;;;;;;;;5012650;28;20050;-66
2022/08/17 01:24:52;;;;;;;8.02;6.43;;;;;;;;;;5012004;28;20049;-67
2022/08/17 01:27:19;;;;;;;6.93;6.32;;;;;;;;;;5011756;28;20046;-67
2022/08/17 01:29:50;;;;;;;7.15;6.43;;;;;;;;;;5012512;28;20073;-67
2022/08/17 01:32:18;;;;;;;7.28;6.57;;;;;;;;;;5011180;28;20050;-67
2022/08/17 01:34:46;;;;;;;8.52;6.55;;;;;;;;;;5012391;28;20464;-67
2022/08/17 01:37:17;;;;;;;7.43;6.40;;;;;;;;;;5012549;28;20045;-66
2022/08/17 01:39:49;;;;;;;8.07;7.28;;;;;;;;;;5012102;28;20069;-67
2022/08/17 01:42:29;;;;;;;10.60;7.22;;;;;;;;;;5011032;28;20100;-67
2022/08/17 01:44:58;;;;;;;7.68;7.00;;;;;;;;;;5011205;28;20064;-66
2022/08/17 01:47:24;;;;;;;6.93;6.22;;;;;;;;;;5011317;28;20053;-66
2022/08/17 01:49:51;;;;;;;10.07;6.95;;;;;;;;;;5012265;28;20049;-67
2022/08/17 01:52:18;;;;;;;7.95;7.05;;;;;;;;;;5012407;28;20053;-67
2022/08/17 01:54:46;;;;;;;7.50;6.90;;;;;;;;;;5010903;28;20064;-67
2022/08/17 01:57:12;;;;;;;8.32;7.53;;;;;;;;;;5012347;28;20429;-66
2022/08/17 01:59:39;;;;;;;8.73;6.53;;;;;;;;;;5011944;28;20050;-66
2022/08/17 02:02:06;;;;;;;7.50;6.82;;;;;;;;;;5011866;28;20192;-66
2022/08/17 02:04:33;;;;;;;8.02;7.22;;;;;;;;;;5012137;28;20060;-65
2022/08/17 02:06:59;;;;;;;7.22;6.45;;;;;;;;;;5010781;28;20523;-67
2022/08/17 02:09:27;;;;;;;7.88;7.15;;;;;;;;;;5011918;28;20124;-65
2022/08/17 02:11:57;;;;;;;8.52;7.43;;;;;;;;;;5012116;28;20096;-66
2022/08/17 02:14:24;;;;;;;12.35;7.38;;;;;;;;;;5011983;28;20058;-66
2022/08/17 02:16:51;;;;;;;7.50;6.82;;;;;;;;;;5012025;28;20084;-65
2022/08/17 02:19:18;;;;;;;10.27;6.60;;;;;;;;;;5011905;28;20516;-66
2022/08/17 02:21:47;;;;;;;7.43;6.75;;;;;;;;;;5012054;28;20451;-65
2022/08/17 02:24:22;;;;;;;10.07;6.53;;;;;;;;;;5012129;28;20042;-67
2022/08/17 02:27:09;;;;;;;7.25;6.55;;;;;;;;;;4997860;28;20054;-66
2022/08/17 02:29:36;;;;;;;8.45;6.65;;;;;;;;;;5011784;28;20471;-66
2022/08/17 02:32:03;;;;;;;9.00;6.93;;;;;;;;;;5011857;28;20045;-66
2022/08/17 02:34:31;;;;;;;8.57;7.75;;;;;;;;;;5012077;28;20132;-67
2022/08/17 02:36:57;;;;;;;6.97;6.38;;;;;;;;;;5015571;28;20056;-66
2022/08/17 02:39:24;;;;;;;7.88;7.07;;;;;;;;;;5015362;28;20077;-67
2022/08/17 02:41:59;;;;;;;6.72;6.13;;;;;;;;;;5015469;28;20077;-66
2022/08/17 02:44:26;;;;;;;7.32;6.70;;;;;;;;;;5015652;28;20050;-66
2022/08/17 02:47:06;;;;;;;7.60;6.90;;;;;;;;;;5015646;28;20057;-67
2022/08/17 02:49:33;;;;;;;7.55;6.88;;;;;;;;;;5015215;28;20057;-67
2022/08/17 02:52:02;;;;;;;7.97;6.95;;;;;;;;;;5015336;28;20057;-66
2022/08/17 02:54:29;;;;;;;8.27;6.95;;;;;;;;;;5015520;28;20543;-66
2022/08/17 02:57:06;;;;;;;7.68;6.88;;;;;;;;;;5015883;28;20050;-65
2022/08/17 02:59:32;;;;;;;7.70;6.90;;;;;;;;;;5015124;28;20050;-66
2022/08/17 03:02:01;;;;;;;7.97;7.15;;;;;;;;;;5015051;28;20061;-66
2022/08/17 03:04:27;;;;;;;8.82;7.47;;;;;;;;;;5014037;28;20046;-66
2022/08/17 03:06:54;;;;;;;8.10;7.25;;;;;;;;;;5015167;28;20505;-66
2022/08/17 03:09:22;;;;;;;7.63;6.78;;;;;;;;;;5015086;28;20057;-66
2022/08/17 03:11:50;;;;;;;7.47;6.45;;;;;;;;;;5015058;28;20053;-66
2022/08/17 03:14:21;;;;;;;8.35;7.10;;;;;;;;;;5014736;28;20524;-66
2022/08/17 03:16:52;;;;;;;8.13;7.28;;;;;;;;;;5014861;28;20137;-67
2022/08/17 03:19:19;;;;;;;7.72;6.93;;;;;;;;;;5014897;28;20054;-66
2022/08/17 03:21:46;;;;;;;8.48;6.80;;;;;;;;;;5015025;28;20061;-67
2022/08/17 03:24:20;;;;;;;8.10;7.30;;;;;;;;;;5014723;28;20515;-66
2022/08/17 03:26:54;;;;;;;8.70;7.65;;;;;;;;;;5014783;28;20101;-66
2022/08/17 03:29:20;;;;;;;10.57;8.38;;;;;;;;;;5014418;28;20050;-67
2022/08/17 03:31:48;;;;;;;10.70;8.48;;;;;;;;;;5014676;28;20045;-66
2022/08/17 03:34:15;;;;;;;9.00;8.20;;;;;;;;;;5014779;28;20567;-66
2022/08/17 03:36:42;;;;;;;9.63;7.88;;;;;;;;;;5014772;28;20096;-67
2022/08/17 03:39:08;;;;;;;8.05;7.35;;;;;;;;;;5014505;28;20054;-67
2022/08/17 03:41:35;;;;;;;7.63;6.93;;;;;;;;;;5014362;28;20398;-67
2022/08/17 03:44:02;;;;;;;7.88;7.00;;;;;;;;;;5014212;28;20050;-66
2022/08/17 03:57:30;;;;;;;7.35;6.65;;;;;;;;;;5014407;28;20057;-65
2022/08/17 03:59:57;;;;;;;7.40;6.70;;;;;;;;;;5014172;28;20047;-67
2022/08/17 04:02:29;;;;;;;7.75;6.95;;;;;;;;;;5015136;28;20097;-66
2022/08/17 04:04:56;;;;;;;7.22;6.55;;;;;;;;;;5030891;28;20048;-64
2022/08/17 04:07:26;;;;;;;7.38;6.68;;;;;;;;;;5017925;28;20056;-66
2022/08/17 04:09:53;;;;;;;8.88;7.10;;;;;;;;;;5013884;28;20054;-67
2022/08/17 04:12:23;;;;;;;8.02;7.25;;;;;;;;;;5014304;28;20052;-67
2022/08/17 04:14:50;;;;;;;8.40;7.60;;;;;;;;;;5015866;28;20424;-66
2022/08/17 04:17:22;;;;;;;8.07;7.28;;;;;;;;;;5015365;28;20485;-67
2022/08/17 04:19:49;;;;;;;8.25;7.47;;;;;;;;;;5015314;28;20053;-67
2022/08/17 04:22:15;;;;;;;9.63;8.10;;;;;;;;;;5014827;28;20060;-70
2022/08/17 04:24:59;;;;;;;;;;;;;;;;;;5014218;28;20096;-70
2022/08/17 04:27:26;;;;;;;8.50;7.53;;;;;;;;;;5013747;28;20418;-70
2022/08/17 04:29:52;;;;;;;9.68;8.27;;;;;;;;;;5014299;28;20103;-70
2022/08/17 04:32:21;;;;;;;10.35;8.82;;;;;;;;;;5014290;28;20057;-70
2022/08/17 04:35:08;;;;;;;10.07;8.65;;;;;;;;;;5013720;28;20049;-70
2022/08/17 04:37:35;;;;;;;10.23;8.13;;;;;;;;;;5013774;28;20058;-70
2022/08/17 04:43:04;;;;;;;11.00;8.25;;;;;;;;;;5012898;28;20100;-69
2022/08/17 04:45:30;;;;;;;9.82;8.45;;;;;;;;;;4994386;28;20050;-69
2022/08/17 04:47:59;;;;;;;9.55;8.48;;;;;;;;;;5008361;28;20539;-69
2022/08/17 04:50:26;;;;;;;10.73;8.50;;;;;;;;;;5013556;28;20050;-69
2022/08/17 04:52:53;;;;;;;9.88;8.88;;;;;;;;;;5013842;28;20054;-70
2022/08/17 04:55:20;;;;;;;9.95;8.85;;;;;;;;;;5013776;28;20053;-70
2022/08/17 04:57:46;;;;;;;10.88;9.15;;;;;;;;;;5013187;28;20057;-70
2022/08/17 05:00:13;;;;;;;12.13;8.80;;;;;;;;;;5013414;28;20061;-69
2022/08/17 05:02:47;;;;;;;9.85;8.85;;;;;;;;;;5013762;28;20053;-69
2022/08/17 05:05:24;;;;;;;10.13;9.10;;;;;;;;;;5015174;28;20104;-70
2022/08/17 05:07:53;;;;;;;9.02;8.13;;;;;;;;;;5015258;28;20050;-70
2022/08/17 05:10:20;;;;;;;8.55;7.75;;;;;;;;;;5014789;28;20056;-70
2022/08/17 05:12:55;;;;;;;8.80;7.90;;;;;;;;;;5015326;28;20050;-70
2022/08/17 05:15:22;;;;;;;9.18;8.05;;;;;;;;;;5014406;28;20061;-70
2022/08/17 05:17:49;;;;;;;8.35;7.53;;;;;;;;;;5013947;28;20088;-70
2022/08/17 05:20:15;;;;;;;8.75;7.53;;;;;;;;;;5013895;28;20104;-70
2022/08/17 05:23:06;;;;;;;10.05;7.10;;;;;;;;;;5014641;28;20046;-70
2022/08/17 05:25:36;;;;;;;8.13;7.43;;;;;;;;;;5014230;28;20053;-70
2022/08/17 05:28:04;;;;;;;8.50;7.18;;;;;;;;;;5012926;28;20077;-70
2022/08/17 05:30:32;;;;;;;7.65;6.82;;;;;;;;;;5013143;28;20046;-70
2022/08/17 05:33:02;;;;;;;8.02;6.60;;;;;;;;;;5011761;28;20045;-70
2022/08/17 05:35:31;;;;;;;7.53;6.68;;;;;;;;;;5013071;28;20468;-70
2022/08/17 05:37:58;;;;;;;10.13;6.53;;;;;;;;;;5012456;28;20054;-69
2022/08/17 05:40:25;;;;;;;11.25;7.13;;;;;;;;;;5013040;28;20050;-70
2022/08/17 05:43:19;;;;;;;10.27;7.20;;;;;;;;;;5012906;28;20050;-69
2022/08/17 05:46:00;;;;;;;7.15;6.45;;;;;;;;;;5012505;28;20054;-68
2022/08/17 05:48:27;;;;;;;10.80;6.45;;;;;;;;;;5010360;28;20050;-70
2022/08/17 05:51:25;;;;;;;8.20;6.55;;;;;;;;;;5009830;28;20049;-71
2022/08/17 05:54:10;;;;;;;6.72;6.13;;;;;;;;;;5009713;28;20761;-70
2022/08/17 05:56:46;;;;;;;7.57;6.40;;;;;;;;;;5011120;28;20673;-70
2022/08/17 05:59:50;;;;;;;7.60;6.90;;;;;;;;;;5010650;28;20054;-70
2022/08/17 06:02:44;;;;;;;12.93;7.63;;;;;;;;;;5010206;28;20050;-70
2022/08/17 06:05:22;;;;;;;8.45;7.00;;;;;;;;;;4991212;28;20167;-70
2022/08/17 06:07:59;;;;;;;8.35;6.75;;;;;;;;;;4991254;28;20421;-70
2022/08/17 06:10:49;;;;;;;9.13;6.85;;;;;;;;;;4976822;28;20117;-72
2022/08/17 06:13:22;;;;;;;8.63;7.50;;;;;;;;;;5003591;28;20046;-72
2022/08/17 06:16:14;;;;;;;8.52;7.07;;;;;;;;;;5013395;28;20089;-72
2022/08/17 06:19:18;;;;;;;8.27;6.70;;;;;;;;;;5014923;28;20505;-72
2022/08/17 06:21:47;;;;;;;11.80;6.97;;;;;;;;;;4999666;28;20409;-73
2022/08/17 06:24:35;;;;;;;8.75;6.65;;;;;;;;;;5013321;28;20045;-72
2022/08/17 06:27:17;;;;;;;11.10;5.65;;;;;;;;;;5014505;28;20476;-73
2022/08/17 06:29:49;;;;;;;8.23;5.95;;;;;;;;;;5014724;28;20057;-72
2022/08/17 06:32:16;;;;;;;6.88;6.15;;;;;;;;;;5013380;28;20528;-72
2022/08/17 06:34:44;;;;;;;7.38;6.20;;;;;;;;;;5014295;28;20065;-73
2022/08/17 06:37:32;;;;;;;7.43;6.10;;;;;;;;;;5013393;28;20107;-71
2022/08/17 06:40:19;;;;;;;8.65;5.38;;;;;;;;;;5013807;28;20057;-70
2022/08/17 06:42:52;;;;;;;11.65;5.45;;;;;;;;;;5012847;28;20103;-70
2022/08/17 06:45:49;;;;;;;7.57;5.30;;;;;;;;;;5013375;28;20069;-71
2022/08/17 06:48:23;;;;;;;9.40;5.63;;;;;;;;;;5012856;28;20068;-71
2022/08/17 06:51:18;;;;;;;7.35;5.20;;;;;;;;;;5012873;28;20572;-71
2022/08/17 06:53:58;;;;;;;7.85;5.63;;;;;;;;;;5010326;28;20509;-71
2022/08/17 06:56:40;;;;;;;7.47;5.65;;;;;;;;;;5014083;28;20061;-70
2022/08/17 06:59:27;;;;;;;6.53;5.00;;;;;;;;;;5012869;28;20050;-71
2022/08/17 07:02:19;;;;;;;5.78;5.05;;;;;;;;;;5012332;28;20050;-67
2022/08/17 07:04:55;;;;;;;5.15;4.43;;;;;;;;;;4978460;28;20073;-67
2022/08/17 07:10:07;;;;;;;5.97;5.15;;;;;;;;;;4978895;28;20058;-67
2022/08/17 07:12:37;;;;;;;5.32;4.78;;;;;;;;;;4978332;28;20648;-67
2022/08/17 07:15:10;;;;;;;7.18;4.72;;;;;;;;;;5012141;28;20056;-66
2022/08/17 07:17:37;;;;;;;5.63;4.55;;;;;;;;;;5012160;28;20058;-66
2022/08/17 07:20:19;;;;;;;11.75;4.55;;;;;;;;;;5012773;28;20613;-66
2022/08/17 07:23:07;;;;;;;6.50;4.25;;;;;;;;;;5028746;28;20057;-72
2022/08/17 07:25:34;;;;;;;11.20;4.70;;;;;;;;;;5012792;28;20054;-69
2022/08/17 07:28:03;;;;;;;7.28;4.00;;;;;;;;;;5013135;28;20046;-68
2022/08/17 07:30:40;;;;;;;7.88;4.43;;;;;;;;;;5015038;28;20057;-70
2022/08/17 07:33:24;;;;;;;5.45;3.90;;;;;;;;;;5015475;28;20056;-73
2022/08/17 07:35:51;;;;;;;5.20;3.80;;;;;;;;;;5014823;28;20050;-67
2022/08/17 07:38:17;;;;;;;5.57;3.90;;;;;;;;;;5014542;28;20054;-67
2022/08/17 07:41:04;;;;;;;12.57;4.55;;;;;;;;;;5014572;28;20141;-66
2022/08/17 07:43:40;;;;;;;5.25;4.00;;;;;;;;;;5014307;28;20524;-66
2022/08/17 07:49:16;;;;;;;6.00;4.35;;;;;;;;;;5014208;28;20050;-67
2022/08/17 07:51:42;;;;;;;5.57;4.03;;;;;;;;;;5014083;28;20053;-67
2022/08/17 07:54:17;;;;;;;4.63;4.18;;;;;;;;;;5013094;28;20046;-66
2022/08/17 07:57:18;;;;;;;4.18;3.88;;;;;;;;;;5014467;28;20050;-66
2022/08/17 08:00:08;;;;;;;5.60;4.30;;;;;;;;;;5013918;28;20053;-67
2022/08/17 08:02:44;;;;;;;6.55;4.20;;;;;;;;;;5013762;28;20054;-66
2022/08/17 08:05:20;;;;;;;5.43;4.15;;;;;;;;;;5014236;28;20127;-66
2022/08/17 08:08:25;;;;;;;3.80;3.50;;;;;;;;;;5013116;28;20049;-67
2022/08/17 08:11:07;;;;;;;4.13;3.72;;;;;;;;;;5013001;28;20398;-66
2022/08/17 08:13:41;;;;;;;4.18;3.78;;;;;;;;;;5014039;28;20054;-67
2022/08/17 08:16:23;;;;;;;4.88;4.00;;;;;;;;;;5013780;28;20057;-66
2022/08/17 08:18:53;;;;;;;5.80;4.07;;;;;;;;;;5013507;28;20061;-66
2022/08/17 08:21:29;;;;;;;5.70;4.20;;;;;;;;;;5014211;28;20045;-67
2022/08/17 08:24:15;;;;;;;4.78;3.85;;;;;;;;;;5012482;28;20390;-67
2022/08/17 08:26:49;;;;;;;5.72;4.30;;;;;;;;;;5012583;28;20054;-66
2022/08/17 08:29:40;;;;;;;5.80;4.18;;;;;;;;;;5012064;28;20497;-67
2022/08/17 08:32:41;;;;;;;7.15;4.35;;;;;;;;;;5012600;28;20136;-66
2022/08/17 08:35:13;;;;;;;6.65;4.55;;;;;;;;;;5011977;28;20057;-66
2022/08/17 08:37:46;;;;;;;4.93;3.50;;;;;;;;;;5013288;28;20061;-66
2022/08/17 08:40:15;;;;;;;6.68;4.28;;;;;;;;;;5013545;28;20058;-67
2022/08/17 08:43:07;;;;;;;6.18;4.53;;;;;;;;;;5013576;28;20054;-67
2022/08/17 08:45:49;;;;;;;7.82;5.13;;;;;;;;;;5012470;28;20057;-67
2022/08/17 08:48:25;;;;;;;8.77;4.87;;;;;;;;;;5013101;28;20402;-67
2022/08/17 08:51:15;;;;;;;7.93;4.80;;;;;;;;;;5013537;28;20104;-67
2022/08/17 08:54:27;;;;;;;7.05;4.50;;;;;;;;;;5013239;28;20517;-66
2022/08/17 08:57:18;;;;;;;5.13;4.63;;;;;;;;;;4999064;28;20046;-66
2022/08/17 09:00:20;;;;;;;5.47;4.57;;;;;;;;;;5012353;28;20049;-67
2022/08/17 09:03:06;;;;;;;6.47;4.78;;;;;;;;;;5011777;28;20065;-67
2022/08/17 09:06:01;;;;;;;9.18;5.82;;;;;;;;;;5012989;28;20497;-67
2022/08/17 09:08:54;;;;;;;4.93;4.05;;;;;;;;;;5012745;28;20054;-67
2022/08/17 09:11:47;;;;;;;6.63;4.55;;;;;;;;;;5011998;28;20053;-67
2022/08/17 09:14:31;;;;;;;4.45;4.07;;;;;;;;;;5011742;28;20073;-67
2022/08/17 09:17:15;;;;;;;7.18;4.75;;;;;;;;;;5012881;28;20493;-67
2022/08/17 09:19:49;;;;;;;5.35;4.07;;;;;;;;;;4995732;28;20133;-67
2022/08/17 09:22:38;;;;;;;10.02;4.30;;;;;;;;;;4995483;28;20497;-67
2022/08/17 09:25:12;;;;;;;8.30;4.35;;;;;;;;;;4996199;28;20053;-67
2022/08/17 09:27:47;;;;;;;4.50;4.10;;;;;;;;;;5011227;28;20054;-67
2022/08/17 09:30:14;;;;;;;5.93;4.30;;;;;;;;;;5011208;28;20046;-67
2022/08/17 09:32:40;;;;;;;4.28;3.88;;;;;;;;;;5012279;28;20049;-67
2022/08/17 09:35:15;;;;;;;4.45;3.95;;;;;;;;;;5012337;28;20064;-67
2022/08/17 09:37:48;;;;;;;4.97;4.03;;;;;;;;;;5011250;28;20060;-67
2022/08/17 09:40:25;;;;;;;6.32;4.45;;;;;;;;;;5012109;28;20429;-67
2022/08/17 09:43:18;;;;;;;4.50;4.10;;;;;;;;;;5011250;28;20052;-67
2022/08/17 09:45:49;;;;;;;5.03;4.57;;;;;;;;;;4993580;28;20046;-67
2022/08/17 09:48:26;;;;;;;5.47;4.40;;;;;;;;;;5011001;28;20053;-67
2022/08/17 09:51:06;;;;;;;6.53;4.57;;;;;;;;;;4995657;28;20050;-67
2022/08/17 09:53:35;;;;;;;8.68;4.70;;;;;;;;;;5012369;28;20056;-66
2022/08/17 09:56:39;;;;;;;7.07;4.55;;;;;;;;;;5012302;28;20071;-67
2022/08/17 09:59:31;;;;;;;5.70;4.32;;;;;;;;;;5012117;28;20429;-68
2022/08/17 10:02:10;;;;;;;8.90;4.78;;;;;;;;;;5012291;28;20057;-66
2022/08/17 10:04:52;;;;;;;6.82;4.32;;;;;;;;;;5011034;28;20081;-67
2022/08/17 10:07:32;;;;;;;5.78;3.75;;;;;;;;;;4995150;28;20750;-66
2022/08/17 10:10:19;;;;;;;4.30;3.50;;;;;;;;;;5012017;28;20050;-66
2022/08/17 10:12:57;;;;;;;5.03;3.13;;;;;;;;;;5011100;28;20053;-67
2022/08/17 10:15:55;;;;;;;6.70;3.78;;;;;;;;;;5010714;28;20462;-66
2022/08/17 10:18:30;;;;;;;6.68;3.63;;;;;;;;;;5011825;28;20432;-67
2022/08/17 10:26:39;;;;;;;5.70;4.20;;;;;;;;;;5010767;28;20054;-66
2022/08/17 10:29:34;;;;;;;6.43;4.10;;;;;;;;;;4996835;28;20072;-66
2022/08/17 10:32:40;;;;;;;5.20;4.55;;;;;;;;;;4997157;28;20057;-66
2022/08/17 10:35:15;;;;;;;6.07;3.78;;;;;;;;;;5001865;28;20050;-66
2022/08/17 10:37:48;;;;;;;7.20;3.67;;;;;;;;;;5008998;28;20050;-66
2022/08/17 10:40:27;;;;;;;6.03;3.75;;;;;;;;;;5008899;28;20481;-66
2022/08/17 10:43:17;;;;;;;3.35;3.00;;;;;;;;;;5008857;28;20421;-66
2022/08/17 10:46:02;;;;;;;3.47;3.17;;;;;;;;;;4998502;28;20097;-66
2022/08/17 10:49:12;;;;;;;3.97;2.97;;;;;;;;;;5009001;28;20062;-67
2022/08/17 10:51:40;;;;;;;5.47;3.00;;;;;;;;;;5010021;28;20119;-66
2022/08/17 10:54:40;;;;;;;3.53;2.88;;;;;;;;;;5008478;28;20057;-66
2022/08/17 10:57:25;;;;;;;3.72;2.50;;;;;;;;;;5003853;28;20058;-66
2022/08/17 11:00:19;;;;;;;4.85;3.10;;;;;;;;;;5011755;28;20053;-66
2022/08/17 11:02:54;;;;;;;4.05;2.95;;;;;;;;;;4996387;28;20054;-69
2022/08/17 11:05:52;;;;;;;6.30;3.42;;;;;;;;;;5011741;28;20467;-69
2022/08/17 11:08:55;;;;;;;8.20;3.45;;;;;;;;;;5012503;28;20049;-71
2022/08/17 11:11:37;;;;;;;4.35;2.80;;;;;;;;;;5000969;28;20061;-70
2022/08/17 11:14:23;;;;;;;3.63;3.13;;;;;;;;;;5012076;28;20563;-72
2022/08/17 11:17:14;;;;;;;5.10;3.30;;;;;;;;;;5011833;28;20056;-71
2022/08/17 11:20:17;;;;;;;4.22;3.38;;;;;;;;;;5013250;28;20042;-71
2022/08/17 11:23:22;;;;;;;5.72;3.30;;;;;;;;;;5012022;28;20599;-70
2022/08/17 11:25:54;;;;;;;5.45;3.38;;;;;;;;;;5012054;28;20042;-71
2022/08/17 11:28:33;;;;;;;4.87;2.87;;;;;;;;;;5011760;28;20046;-71
2022/08/17 11:31:35;;;;;;;3.42;3.13;;;;;;;;;;5012492;28;20293;-71
2022/08/17 11:34:18;;;;;;;4.55;3.22;;;;;;;;;;4993347;28;20058;-71
2022/08/17 11:36:57;;;;;;;4.07;3.08;;;;;;;;;;4992208;28;20061;-72
2022/08/17 11:39:42;;;;;;;3.50;2.90;;;;;;;;;;4993420;28;20057;-67
2022/08/17 11:42:18;;;;;;;4.25;3.22;;;;;;;;;;4992845;28;20053;-67
2022/08/17 11:45:23;;;;;;;3.13;2.78;;;;;;;;;;4998833;28;20054;-67
2022/08/17 11:51:32;;;;;;;3.33;3.03;;;;;;;;;;4995379;28;20071;-67
2022/08/17 11:54:09;;;;;;;4.10;3.70;;;;;;;;;;4995471;28;20104;-67
2022/08/17 11:57:20;;;;;;;3.58;2.92;;;;;;;;;;5005156;28;20081;-67
2022/08/17 11:59:47;;;;;;;5.10;3.30;;;;;;;;;;5003771;28;20546;-67
2022/08/17 12:02:26;;;;;;;5.78;3.38;;;;;;;;;;5013941;28;20057;-68
2022/08/17 12:05:13;;;;;;;3.75;2.63;;;;;;;;;;5014011;28;20069;-67
2022/08/17 12:08:00;;;;;;;5.25;3.25;;;;;;;;;;5013184;28;20046;-67
2022/08/17 12:10:31;;;;;;;3.97;3.22;;;;;;;;;;4998281;28;20050;-67
2022/08/17 12:12:58;;;;;;;4.65;3.33;;;;;;;;;;5013077;28;20061;-67
2022/08/17 12:15:30;;;;;;;4.40;2.90;;;;;;;;;;5014149;28;20077;-67
2022/08/17 12:17:57;;;;;;;3.10;2.80;;;;;;;;;;5012710;28;20532;-67
2022/08/17 12:20:34;;;;;;;4.32;3.20;;;;;;;;;;5013759;28;20497;-67
2022/08/17 12:23:06;;;;;;;3.10;2.85;;;;;;;;;;5015259;28;20068;-67
2022/08/17 12:25:42;;;;;;;3.33;2.50;;;;;;;;;;5020270;28;20409;-67
2022/08/17 12:28:30;;;;;;;3.00;2.80;;;;;;;;;;5016828;28;20049;-67
2022/08/17 12:31:12;;;;;;;3.72;2.95;;;;;;;;;;5009948;28;20061;-73
2022/08/17 12:33:42;;;;;;;4.70;3.03;;;;;;;;;;5009562;28;20057;-73
2022/08/17 12:36:13;;;;;;;3.58;2.80;;;;;;;;;;5010919;28;20307;-70
2022/08/17 12:38:42;;;;;;;3.40;2.78;;;;;;;;;;5021642;28;20046;-72
2022/08/17 12:41:27;;;;;;;4.35;2.95;;;;;;;;;;5003204;28;20092;-72
2022/08/17 12:43:57;;;;;;;5.45;3.20;;;;;;;;;;5013130;28;20493;-72
2022/08/17 12:46:24;;;;;;;3.78;2.70;;;;;;;;;;5014208;28;20049;-71
2022/08/17 12:48:51;;;;;;;3.20;2.90;;;;;;;;;;5026919;28;20077;-72
2022/08/17 12:51:27;;;;;;;3.10;2.80;;;;;;;;;;5033484;28;20049;-72
2022/08/17 12:53:54;;;;;;;4.57;3.03;;;;;;;;;;5024936;28;20057;-71
2022/08/17 12:56:21;;;;;;;3.38;2.92;;;;;;;;;;5013607;28;20046;-71
2022/08/17 12:58:52;;;;;;;2.63;2.42;;;;;;;;;;5026309;28;20053;-71
2022/08/17 13:01:23;;;;;;;3.20;2.75;;;;;;;;;;5029497;28;20045;-72
2022/08/17 13:03:53;;;;;;;3.58;2.90;;;;;;;;;;5024728;28;20416;-73
2022/08/17 13:06:34;;;;;;;3.35;2.90;;;;;;;;;;4994120;28;20112;-73
2022/08/17 13:09:12;;;;;;;3.00;2.80;;;;;;;;;;4998965;28;20137;-71
2022/08/17 13:11:50;;;;;;;3.85;2.85;;;;;;;;;;4999740;28;20057;-71
2022/08/17 13:14:17;;;;;;;3.42;2.42;;;;;;;;;;4993000;28;20461;-71
2022/08/17 13:16:59;;;;;;;2.88;2.67;;;;;;;;;;4993624;28;20524;-72
2022/08/17 13:19:30;;;;;;;3.72;3.20;;;;;;;;;;5005087;28;20082;-71
2022/08/17 13:22:09;;;;;;;4.47;3.08;;;;;;;;;;5015156;28;20050;-71
2022/08/17 13:24:36;;;;;;;3.88;2.63;;;;;;;;;;5016783;28;20050;-72
2022/08/17 13:27:09;;;;;;;3.28;2.97;;;;;;;;;;5016595;28;20066;-72
2022/08/17 13:30:00;;;;;;;3.13;2.30;;;;;;;;;;5016627;28;20045;-71
2022/08/17 13:32:29;;;;;;;2.90;2.65;;;;;;;;;;5016991;28;20048;-69
2022/08/17 13:35:02;;;;;;;3.70;2.53;;;;;;;;;;5015958;28;20074;-70
2022/08/17 13:37:56;;;;;;;2.80;2.60;;;;;;;;;;5028672;28;20047;-70
2022/08/17 13:40:27;;;;;;;4.10;2.70;;;;;;;;;;5015041;28;20046;-70
2022/08/17 13:42:54;;;;;;;4.32;2.50;;;;;;;;;;5016789;28;20061;-71
2022/08/17 13:45:30;;;;;;;2.22;2.10;;;;;;;;;;5015952;28;20050;-70
2022/08/17 13:48:05;;;;;;;3.38;2.60;;;;;;;;;;5015898;28;20034;-70
2022/08/17 13:50:32;;;;;;;2.67;2.40;;;;;;;;;;5015646;28;20049;-70
2022/08/17 13:52:59;;;;;;;2.60;2.40;;;;;;;;;;5016900;28;20077;-70
2022/08/17 13:55:29;;;;;;;3.55;2.65;;;;;;;;;;5028885;28;20056;-72
2022/08/17 13:57:56;;;;;;;3.70;3.40;;;;;;;;;;5026581;28;20036;-72
2022/08/17 14:00:38;;;;;;;3.13;2.75;;;;;;;;;;5030340;28;20044;-74
2022/08/17 14:03:04;;;;;;;2.85;2.65;;;;;;;;;;5052844;28;20056;-67
2022/08/17 14:05:32;;;;;;;4.18;2.60;;;;;;;;;;5038970;28;20045;-67
2022/08/17 14:08:03;;;;;;;2.65;2.45;;;;;;;;;;5036756;28;20540;-67
2022/08/17 14:10:34;;;;;;;3.10;2.72;;;;;;;;;;5036289;28;20053;-66
2022/08/17 14:13:01;;;;;;;2.55;2.35;;;;;;;;;;5030548;28;20045;-67
2022/08/17 14:15:28;;;;;;;3.00;2.70;;;;;;;;;;5017645;28;20050;-67
2022/08/17 14:18:16;;;;;;;3.67;2.25;;;;;;;;;;5016646;28;20049;-67
2022/08/17 14:21:01;;;;;;;4.35;2.78;;;;;;;;;;5017725;28;20093;-67
2022/08/17 14:23:30;;;;;;;3.08;2.55;;;;;;;;;;5015569;28;20424;-67
2022/08/17 14:25:57;;;;;;;2.65;2.28;;;;;;;;;;5017184;28;20041;-68
2022/08/17 14:28:23;;;;;;;3.90;2.53;;;;;;;;;;5016579;28;20046;-67
2022/08/17 14:30:54;;;;;;;2.45;2.20;;;;;;;;;;5021692;28;20080;-67
2022/08/17 14:33:24;;;;;;;3.10;2.70;;;;;;;;;;5033060;28;20065;-73
2022/08/17 14:35:58;;;;;;;2.53;1.88;;;;;;;;;;5041012;28;20034;-73
2022/08/17 14:38:24;;;;;;;2.58;2.20;;;;;;;;;;5041754;28;20037;-74
2022/08/17 14:41:11;;;;;;;3.08;2.40;;;;;;;;;;5061370;28;20049;-73
2022/08/17 14:43:38;;;;;;;2.65;2.33;;;;;;;;;;5061405;28;20041;-73
2022/08/17 14:46:11;;;;;;;2.83;2.63;;;;;;;;;;5060971;28;20033;-75
2022/08/17 14:48:45;;;;;;;4.18;2.90;;;;;;;;;;5061176;28;20042;-75
2022/08/17 14:51:13;;;;;;;3.05;2.38;;;;;;;;;;5061285;28;20034;-78
2022/08/17 14:53:40;;;;;;;2.65;2.45;;;;;;;;;;5060760;28;20097;-72
2022/08/17 14:56:07;;;;;;;3.70;2.78;;;;;;;;;;5060339;28;20179;-72
2022/08/17 14:58:34;;;;;;;3.85;3.08;;;;;;;;;;5046769;28;20132;-66
2022/08/17 15:01:06;;;;;;;3.88;2.75;;;;;;;;;;5042613;28;20053;-65
2022/08/17 15:03:38;;;;;;;3.45;2.42;;;;;;;;;;5045367;28;20060;-66
2022/08/17 15:06:05;;;;;;;3.65;3.25;;;;;;;;;;5046338;28;20052;-66
2022/08/17 15:08:31;;;;;;;4.10;2.88;;;;;;;;;;5045899;28;20057;-66
2022/08/17 15:11:00;;;;;;;2.92;2.72;;;;;;;;;;5038781;28;20354;-66
2022/08/17 15:13:27;;;;;;;3.20;2.78;;;;;;;;;;5044934;28;20056;-67
2022/08/17 15:15:53;;;;;;;3.75;2.90;;;;;;;;;;5026733;28;20050;-66
2022/08/17 15:18:20;;;;;;;2.60;2.40;;;;;;;;;;5019085;28;20210;-67
2022/08/17 15:20:48;;;;;;;3.42;3.13;;;;;;;;;;5023552;28;20054;-66
2022/08/17 15:23:18;;;;;;;3.22;2.92;;;;;;;;;;5020104;28;20120;-67
2022/08/17 15:25:47;;;;;;;3.83;2.75;;;;;;;;;;5021128;28;20481;-67
2022/08/17 15:28:14;;;;;;;4.97;2.72;;;;;;;;;;5023481;28;20042;-68
2022/08/17 15:30:42;;;;;;;3.05;2.80;;;;;;;;;;5024470;28;20056;-66
2022/08/17 15:33:13;;;;;;;3.28;2.97;;;;;;;;;;5024665;28;20050;-66
2022/08/17 15:35:41;;;;;;;3.25;2.85;;;;;;;;;;5019901;28;20043;-66
2022/08/17 15:38:09;;;;;;;3.00;2.70;;;;;;;;;;5020040;28;20050;-66
2022/08/17 15:40:44;;;;;;;3.20;2.53;;;;;;;;;;5015747;28;20069;-69
2022/08/17 15:43:15;;;;;;;4.03;2.88;;;;;;;;;;5013492;28;20061;-66
2022/08/17 15:45:42;;;;;;;3.67;2.72;;;;;;;;;;5021057;28;20037;-67
2022/08/17 15:48:09;;;;;;;2.80;2.50;;;;;;;;;;5020011;28;20054;-67
2022/08/17 15:50:36;;;;;;;2.78;2.40;;;;;;;;;;5045320;28;20026;-75
2022/08/17 15:53:19;;;;;;;3.85;2.90;;;;;;;;;;5027615;28;20053;-79
2022/08/17 15:55:57;;;;;;;3.85;2.75;;;;;;;;;;5035738;28;20049;-77
2022/08/17 15:58:23;;;;;;;4.65;2.70;;;;;;;;;;5028536;28;20099;-69
2022/08/17 16:00:59;;;;;;;4.28;2.67;;;;;;;;;;5028250;28;20058;-68